sensor_id;sensor_type;location;lat;lon;timestamp;P1;durP1;ratioP1;P2;durP2;ratioP2
7783;SDS011;19359;51.402;6.778;2024-02-21T00:00:15;71.70;;;64.22;;
7783;SDS011;19359;51.402;6.778;2024-02-21T00:02:42;165.55;;;137.88;;
7783;SDS011;19359;51.402;6.778;2024-02-21T00:05:09;163.57;;;139.95;;
7783;SDS011;19359;51.402;6.778;2024-02-21T00:07:36;259.20;;;167.60;;
7783;SDS011;19359;51.402;6.778;2024-02-21T00:10:02;166.65;;;115.75;;
7783;SDS011;19359;51.402;6.778;2024-02-21T00:12:30;85.95;;;77.85;;
7783;SDS011;19359;51.402;6.778;2024-02-21T00:14:57;77.32;;;71.00;;
7783;SDS011;19359;51.402;6.778;2024-02-21T00:17:25;70.45;;;63.63;;
7783;SDS011;19359;51.402;6.778;2024-02-21T00:19:51;139.75;;;121.35;;
7783;SDS011;19359;51.402;6.778;2024-02-21T00:22:18;152.20;;;121.78;;
7783;SDS011;19359;51.402;6.778;2024-02-21T00:24:45;90.80;;;81.28;;
7783;SDS011;19359;51.402;6.778;2024-02-21T00:27:12;63.72;;;58.55;;
7783;SDS011;19359;51.402;6.778;2024-02-21T00:29:38;68.22;;;62.55;;
7783;SDS011;19359;51.402;6.778;2024-02-21T00:32:05;128.60;;;113.70;;
7783;SDS011;19359;51.402;6.778;2024-02-21T00:34:33;116.72;;;96.78;;
7783;SDS011;19359;51.402;6.778;2024-02-21T00:37:00;92.18;;;83.10;;
7783;SDS011;19359;51.402;6.778;2024-02-21T00:39:27;115.85;;;103.82;;
7783;SDS011;19359;51.402;6.778;2024-02-21T00:41:54;76.63;;;69.50;;
7783;SDS011;19359;51.402;6.778;2024-02-21T00:44:20;81.03;;;74.43;;
7783;SDS011;19359;51.402;6.778;2024-02-21T00:46:47;81.05;;;74.45;;
7783;SDS011;19359;51.402;6.778;2024-02-21T00:49:14;83.88;;;75.95;;
7783;SDS011;19359;51.402;6.778;2024-02-21T00:51:42;120.80;;;108.00;;
7783;SDS011;19359;51.402;6.778;2024-02-21T00:54:08;253.35;;;169.07;;
7783;SDS011;19359;51.402;6.778;2024-02-21T00:56:35;296.92;;;190.18;;
7783;SDS011;19359;51.402;6.778;2024-02-21T00:59:02;273.25;;;175.38;;
7783;SDS011;19359;51.402;6.778;2024-02-21T01:01:28;367.15;;;198.65;;
7783;SDS011;19359;51.402;6.778;2024-02-21T01:03:55;348.30;;;196.10;;
7783;SDS011;19359;51.402;6.778;2024-02-21T01:06:22;307.80;;;181.88;;
7783;SDS011;19359;51.402;6.778;2024-02-21T01:08:50;345.65;;;189.45;;
7783;SDS011;19359;51.402;6.778;2024-02-21T01:11:17;329.42;;;193.40;;
7783;SDS011;19359;51.402;6.778;2024-02-21T01:13:44;329.27;;;192.90;;
7783;SDS011;19359;51.402;6.778;2024-02-21T01:16:11;363.27;;;193.05;;
7783;SDS011;19359;51.402;6.778;2024-02-21T01:18:37;297.10;;;185.50;;
7783;SDS011;19359;51.402;6.778;2024-02-21T01:21:05;348.00;;;182.55;;
7783;SDS011;19359;51.402;6.778;2024-02-21T01:23:33;690.47;;;226.07;;
7783;SDS011;19359;51.402;6.778;2024-02-21T01:26:01;658.33;;;215.57;;
7783;SDS011;19359;51.402;6.778;2024-02-21T01:28:28;713.53;;;207.93;;
7783;SDS011;19359;51.402;6.778;2024-02-21T01:30:55;434.90;;;179.02;;
7783;SDS011;19359;51.402;6.778;2024-02-21T01:33:22;192.32;;;95.13;;
7783;SDS011;19359;51.402;6.778;2024-02-21T01:35:49;121.22;;;95.72;;
7783;SDS011;19359;51.402;6.778;2024-02-21T01:38:16;308.13;;;166.70;;
7783;SDS011;19359;51.402;6.778;2024-02-21T01:40:42;302.27;;;168.85;;
7783;SDS011;19359;51.402;6.778;2024-02-21T01:43:16;378.73;;;166.73;;
7783;SDS011;19359;51.402;6.778;2024-02-21T01:45:45;406.58;;;171.85;;
7783;SDS011;19359;51.402;6.778;2024-02-21T01:48:15;414.25;;;165.57;;
7783;SDS011;19359;51.402;6.778;2024-02-21T01:50:42;416.15;;;181.98;;
7783;SDS011;19359;51.402;6.778;2024-02-21T01:53:10;494.48;;;193.00;;
7783;SDS011;19359;51.402;6.778;2024-02-21T01:55:42;478.42;;;186.48;;
7783;SDS011;19359;51.402;6.778;2024-02-21T01:58:09;511.55;;;182.15;;
7783;SDS011;19359;51.402;6.778;2024-02-21T02:00:38;514.97;;;183.60;;
7783;SDS011;19359;51.402;6.778;2024-02-21T02:03:07;516.45;;;189.32;;
7783;SDS011;19359;51.402;6.778;2024-02-21T02:05:35;555.10;;;181.30;;
7783;SDS011;19359;51.402;6.778;2024-02-21T02:08:02;573.22;;;181.07;;
7783;SDS011;19359;51.402;6.778;2024-02-21T02:10:29;548.95;;;183.45;;
7783;SDS011;19359;51.402;6.778;2024-02-21T02:12:56;534.78;;;192.13;;
7783;SDS011;19359;51.402;6.778;2024-02-21T02:15:22;550.50;;;198.07;;
7783;SDS011;19359;51.402;6.778;2024-02-21T02:17:51;196.80;;;134.88;;
7783;SDS011;19359;51.402;6.778;2024-02-21T02:20:17;469.20;;;190.95;;
7783;SDS011;19359;51.402;6.778;2024-02-21T02:22:44;567.67;;;186.30;;
7783;SDS011;19359;51.402;6.778;2024-02-21T02:25:14;560.85;;;183.13;;
7783;SDS011;19359;51.402;6.778;2024-02-21T02:27:41;540.83;;;183.90;;
7783;SDS011;19359;51.402;6.778;2024-02-21T02:30:10;510.15;;;179.43;;
7783;SDS011;19359;51.402;6.778;2024-02-21T02:32:37;530.25;;;178.10;;
7783;SDS011;19359;51.402;6.778;2024-02-21T02:35:04;554.67;;;193.52;;
7783;SDS011;19359;51.402;6.778;2024-02-21T02:37:31;567.10;;;189.65;;
7783;SDS011;19359;51.402;6.778;2024-02-21T02:39:58;548.75;;;170.88;;
7783;SDS011;19359;51.402;6.778;2024-02-21T02:42:26;560.60;;;168.85;;
7783;SDS011;19359;51.402;6.778;2024-02-21T02:44:53;564.35;;;182.23;;
7783;SDS011;19359;51.402;6.778;2024-02-21T02:47:20;576.25;;;175.18;;
7783;SDS011;19359;51.402;6.778;2024-02-21T02:49:47;571.97;;;177.18;;
7783;SDS011;19359;51.402;6.778;2024-02-21T02:52:15;595.08;;;168.38;;
7783;SDS011;19359;51.402;6.778;2024-02-21T02:54:42;631.88;;;174.32;;
7783;SDS011;19359;51.402;6.778;2024-02-21T02:57:09;663.20;;;185.00;;
7783;SDS011;19359;51.402;6.778;2024-02-21T02:59:37;684.95;;;177.73;;
7783;SDS011;19359;51.402;6.778;2024-02-21T03:02:04;703.45;;;167.77;;
7783;SDS011;19359;51.402;6.778;2024-02-21T03:04:31;701.65;;;164.60;;
7783;SDS011;19359;51.402;6.778;2024-02-21T03:06:58;710.13;;;161.30;;
7783;SDS011;19359;51.402;6.778;2024-02-21T03:09:24;699.47;;;162.98;;
7783;SDS011;19359;51.402;6.778;2024-02-21T03:11:51;692.03;;;175.68;;
7783;SDS011;19359;51.402;6.778;2024-02-21T03:14:22;693.38;;;161.85;;
7783;SDS011;19359;51.402;6.778;2024-02-21T03:16:52;702.70;;;164.60;;
7783;SDS011;19359;51.402;6.778;2024-02-21T03:19:19;709.22;;;156.75;;
7783;SDS011;19359;51.402;6.778;2024-02-21T03:21:45;704.92;;;166.65;;
7783;SDS011;19359;51.402;6.778;2024-02-21T03:24:12;703.15;;;163.18;;
7783;SDS011;19359;51.402;6.778;2024-02-21T03:26:39;701.88;;;160.75;;
7783;SDS011;19359;51.402;6.778;2024-02-21T03:29:05;704.85;;;166.93;;
7783;SDS011;19359;51.402;6.778;2024-02-21T03:31:32;705.67;;;163.40;;
7783;SDS011;19359;51.402;6.778;2024-02-21T03:34:00;702.67;;;163.73;;
7783;SDS011;19359;51.402;6.778;2024-02-21T03:36:27;702.05;;;170.73;;
7783;SDS011;19359;51.402;6.778;2024-02-21T03:38:54;702.63;;;170.45;;
7783;SDS011;19359;51.402;6.778;2024-02-21T03:41:21;706.80;;;155.80;;
7783;SDS011;19359;51.402;6.778;2024-02-21T03:43:48;706.17;;;155.73;;
7783;SDS011;19359;51.402;6.778;2024-02-21T03:46:14;705.15;;;153.50;;
7783;SDS011;19359;51.402;6.778;2024-02-21T03:48:41;712.28;;;159.23;;
7783;SDS011;19359;51.402;6.778;2024-02-21T03:51:09;644.13;;;176.60;;
7783;SDS011;19359;51.402;6.778;2024-02-21T03:53:36;542.20;;;154.82;;
7783;SDS011;19359;51.402;6.778;2024-02-21T03:56:03;710.53;;;154.57;;
7783;SDS011;19359;51.402;6.778;2024-02-21T03:58:30;706.47;;;156.23;;
7783;SDS011;19359;51.402;6.778;2024-02-21T04:00:59;701.95;;;152.00;;
7783;SDS011;19359;51.402;6.778;2024-02-21T04:03:26;708.55;;;158.18;;
7783;SDS011;19359;51.402;6.778;2024-02-21T04:05:53;705.80;;;158.57;;
7783;SDS011;19359;51.402;6.778;2024-02-21T04:08:22;707.90;;;160.20;;
7783;SDS011;19359;51.402;6.778;2024-02-21T04:10:49;709.72;;;156.45;;
7783;SDS011;19359;51.402;6.778;2024-02-21T04:13:15;703.35;;;152.07;;
7783;SDS011;19359;51.402;6.778;2024-02-21T04:15:42;710.53;;;152.40;;
7783;SDS011;19359;51.402;6.778;2024-02-21T04:18:09;704.60;;;153.38;;
7783;SDS011;19359;51.402;6.778;2024-02-21T04:20:35;705.85;;;155.07;;
7783;SDS011;19359;51.402;6.778;2024-02-21T04:23:02;704.83;;;156.73;;
7783;SDS011;19359;51.402;6.778;2024-02-21T04:25:30;704.15;;;152.80;;
7783;SDS011;19359;51.402;6.778;2024-02-21T04:27:57;702.08;;;150.85;;
7783;SDS011;19359;51.402;6.778;2024-02-21T04:30:24;706.28;;;156.25;;
7783;SDS011;19359;51.402;6.778;2024-02-21T04:32:51;700.38;;;153.10;;
7783;SDS011;19359;51.402;6.778;2024-02-21T04:35:18;703.72;;;153.85;;
7783;SDS011;19359;51.402;6.778;2024-02-21T04:37:44;696.47;;;146.40;;
7783;SDS011;19359;51.402;6.778;2024-02-21T04:40:11;697.30;;;151.57;;
7783;SDS011;19359;51.402;6.778;2024-02-21T04:42:40;683.47;;;153.15;;
7783;SDS011;19359;51.402;6.778;2024-02-21T04:45:07;703.08;;;186.10;;
7783;SDS011;19359;51.402;6.778;2024-02-21T04:47:35;689.40;;;168.93;;
7783;SDS011;19359;51.402;6.778;2024-02-21T04:50:01;641.55;;;192.55;;
7783;SDS011;19359;51.402;6.778;2024-02-21T04:52:28;692.65;;;152.60;;
7783;SDS011;19359;51.402;6.778;2024-02-21T04:54:55;693.67;;;160.20;;
7783;SDS011;19359;51.402;6.778;2024-02-21T04:57:22;371.45;;;154.00;;
7783;SDS011;19359;51.402;6.778;2024-02-21T04:59:51;467.25;;;155.95;;
7783;SDS011;19359;51.402;6.778;2024-02-21T05:02:18;371.15;;;131.68;;
7783;SDS011;19359;51.402;6.778;2024-02-21T05:04:47;486.48;;;161.00;;
7783;SDS011;19359;51.402;6.778;2024-02-21T05:07:14;251.20;;;138.07;;
7783;SDS011;19359;51.402;6.778;2024-02-21T05:09:41;310.95;;;140.85;;
7783;SDS011;19359;51.402;6.778;2024-02-21T05:12:08;231.48;;;132.50;;
7783;SDS011;19359;51.402;6.778;2024-02-21T05:14:35;78.32;;;70.78;;
7783;SDS011;19359;51.402;6.778;2024-02-21T05:17:03;208.02;;;123.00;;
7783;SDS011;19359;51.402;6.778;2024-02-21T05:19:30;17.63;;;15.82;;
7783;SDS011;19359;51.402;6.778;2024-02-21T05:21:58;33.28;;;31.05;;
7783;SDS011;19359;51.402;6.778;2024-02-21T05:24:25;95.60;;;83.43;;
7783;SDS011;19359;51.402;6.778;2024-02-21T05:26:53;122.70;;;97.30;;
7783;SDS011;19359;51.402;6.778;2024-02-21T05:29:20;188.65;;;115.50;;
7783;SDS011;19359;51.402;6.778;2024-02-21T05:31:56;189.40;;;117.70;;
7783;SDS011;19359;51.402;6.778;2024-02-21T05:34:25;256.65;;;136.63;;
7783;SDS011;19359;51.402;6.778;2024-02-21T05:36:52;191.57;;;120.95;;
7783;SDS011;19359;51.402;6.778;2024-02-21T05:39:19;252.48;;;133.65;;
7783;SDS011;19359;51.402;6.778;2024-02-21T05:41:48;357.02;;;141.73;;
7783;SDS011;19359;51.402;6.778;2024-02-21T05:44:15;630.58;;;165.02;;
7783;SDS011;19359;51.402;6.778;2024-02-21T05:46:42;701.13;;;158.88;;
7783;SDS011;19359;51.402;6.778;2024-02-21T05:49:09;693.53;;;147.18;;
7783;SDS011;19359;51.402;6.778;2024-02-21T05:51:37;698.13;;;151.02;;
7783;SDS011;19359;51.402;6.778;2024-02-21T05:54:04;693.83;;;149.23;;
7783;SDS011;19359;51.402;6.778;2024-02-21T05:56:32;650.72;;;149.65;;
7783;SDS011;19359;51.402;6.778;2024-02-21T05:58:59;7.53;;;3.28;;
7783;SDS011;19359;51.402;6.778;2024-02-21T06:01:25;8.95;;;3.67;;
7783;SDS011;19359;51.402;6.778;2024-02-21T06:03:52;6.75;;;2.13;;
7783;SDS011;19359;51.402;6.778;2024-02-21T06:06:19;6.88;;;3.53;;
7783;SDS011;19359;51.402;6.778;2024-02-21T06:08:48;8.50;;;3.55;;
7783;SDS011;19359;51.402;6.778;2024-02-21T06:11:14;6.82;;;3.67;;
7783;SDS011;19359;51.402;6.778;2024-02-21T06:13:41;12.90;;;3.20;;
7783;SDS011;19359;51.402;6.778;2024-02-21T06:16:08;4.10;;;2.92;;
7783;SDS011;19359;51.402;6.778;2024-02-21T06:18:35;4.05;;;2.85;;
7783;SDS011;19359;51.402;6.778;2024-02-21T06:21:03;5.88;;;3.10;;
7783;SDS011;19359;51.402;6.778;2024-02-21T06:23:30;5.07;;;3.47;;
7783;SDS011;19359;51.402;6.778;2024-02-21T06:25:58;3.60;;;3.08;;
7783;SDS011;19359;51.402;6.778;2024-02-21T06:28:24;7.65;;;2.78;;
7783;SDS011;19359;51.402;6.778;2024-02-21T06:30:52;5.22;;;3.05;;
7783;SDS011;19359;51.402;6.778;2024-02-21T06:33:18;12.75;;;3.50;;
7783;SDS011;19359;51.402;6.778;2024-02-21T06:35:47;11.57;;;2.65;;
7783;SDS011;19359;51.402;6.778;2024-02-21T06:38:17;3.88;;;3.00;;
7783;SDS011;19359;51.402;6.778;2024-02-21T06:40:43;6.72;;;2.53;;
7783;SDS011;19359;51.402;6.778;2024-02-21T06:43:16;3.58;;;2.47;;
7783;SDS011;19359;51.402;6.778;2024-02-21T06:45:43;8.52;;;2.65;;
7783;SDS011;19359;51.402;6.778;2024-02-21T06:48:12;10.30;;;3.30;;
7783;SDS011;19359;51.402;6.778;2024-02-21T06:50:39;2.17;;;1.75;;
7783;SDS011;19359;51.402;6.778;2024-02-21T06:53:05;8.25;;;2.80;;
7783;SDS011;19359;51.402;6.778;2024-02-21T06:55:32;6.28;;;2.38;;
7783;SDS011;19359;51.402;6.778;2024-02-21T06:57:59;5.60;;;2.60;;
7783;SDS011;19359;51.402;6.778;2024-02-21T07:00:28;2.75;;;2.40;;
7783;SDS011;19359;51.402;6.778;2024-02-21T07:02:55;6.13;;;3.13;;
7783;SDS011;19359;51.402;6.778;2024-02-21T07:05:21;3.92;;;2.58;;
7783;SDS011;19359;51.402;6.778;2024-02-21T07:07:48;9.93;;;2.53;;
7783;SDS011;19359;51.402;6.778;2024-02-21T07:10:15;4.97;;;2.15;;
7783;SDS011;19359;51.402;6.778;2024-02-21T07:12:41;2.63;;;2.08;;
7783;SDS011;19359;51.402;6.778;2024-02-21T07:15:08;4.43;;;2.60;;
7783;SDS011;19359;51.402;6.778;2024-02-21T07:17:36;8.98;;;2.60;;
7783;SDS011;19359;51.402;6.778;2024-02-21T07:20:03;3.08;;;1.85;;
7783;SDS011;19359;51.402;6.778;2024-02-21T07:22:30;5.40;;;2.30;;
7783;SDS011;19359;51.402;6.778;2024-02-21T07:24:57;9.18;;;3.08;;
7783;SDS011;19359;51.402;6.778;2024-02-21T07:27:24;11.00;;;2.95;;
7783;SDS011;19359;51.402;6.778;2024-02-21T07:29:53;3.60;;;1.73;;
7783;SDS011;19359;51.402;6.778;2024-02-21T07:32:19;11.43;;;2.50;;
7783;SDS011;19359;51.402;6.778;2024-02-21T07:34:48;4.28;;;2.08;;
7783;SDS011;19359;51.402;6.778;2024-02-21T07:37:14;6.55;;;2.13;;
7783;SDS011;19359;51.402;6.778;2024-02-21T07:39:41;5.60;;;2.58;;
7783;SDS011;19359;51.402;6.778;2024-02-21T07:42:08;6.80;;;2.50;;
7783;SDS011;19359;51.402;6.778;2024-02-21T07:44:34;2.05;;;1.88;;
7783;SDS011;19359;51.402;6.778;2024-02-21T07:47:01;4.47;;;1.90;;
7783;SDS011;19359;51.402;6.778;2024-02-21T07:49:28;2.22;;;1.95;;
7783;SDS011;19359;51.402;6.778;2024-02-21T07:51:56;8.27;;;2.40;;
7783;SDS011;19359;51.402;6.778;2024-02-21T07:54:23;5.00;;;2.17;;
7783;SDS011;19359;51.402;6.778;2024-02-21T07:56:49;7.13;;;2.33;;
7783;SDS011;19359;51.402;6.778;2024-02-21T07:59:16;2.92;;;1.67;;
7783;SDS011;19359;51.402;6.778;2024-02-21T08:01:43;4.35;;;2.85;;
7783;SDS011;19359;51.402;6.778;2024-02-21T08:04:10;6.72;;;2.47;;
7783;SDS011;19359;51.402;6.778;2024-02-21T08:06:37;2.28;;;1.90;;
7783;SDS011;19359;51.402;6.778;2024-02-21T08:09:05;2.85;;;1.65;;
7783;SDS011;19359;51.402;6.778;2024-02-21T08:11:31;4.53;;;1.80;;
7783;SDS011;19359;51.402;6.778;2024-02-21T08:13:58;3.83;;;1.50;;
7783;SDS011;19359;51.402;6.778;2024-02-21T08:16:26;11.68;;;1.95;;
7783;SDS011;19359;51.402;6.778;2024-02-21T08:18:53;3.63;;;1.88;;
7783;SDS011;19359;51.402;6.778;2024-02-21T08:21:19;3.53;;;2.08;;
7783;SDS011;19359;51.402;6.778;2024-02-21T08:23:46;3.75;;;1.63;;
7783;SDS011;19359;51.402;6.778;2024-02-21T08:26:17;3.35;;;1.60;;
7783;SDS011;19359;51.402;6.778;2024-02-21T08:28:44;6.93;;;2.10;;
7783;SDS011;19359;51.402;6.778;2024-02-21T08:31:11;1.90;;;1.80;;
7783;SDS011;19359;51.402;6.778;2024-02-21T08:33:45;6.78;;;1.40;;
7783;SDS011;19359;51.402;6.778;2024-02-21T08:36:16;5.57;;;1.75;;
7783;SDS011;19359;51.402;6.778;2024-02-21T08:38:43;5.85;;;1.65;;
7783;SDS011;19359;51.402;6.778;2024-02-21T08:41:10;9.68;;;3.50;;
7783;SDS011;19359;51.402;6.778;2024-02-21T08:43:38;6.03;;;1.88;;
7783;SDS011;19359;51.402;6.778;2024-02-21T08:46:05;4.50;;;1.85;;
7783;SDS011;19359;51.402;6.778;2024-02-21T08:48:31;9.07;;;1.77;;
7783;SDS011;19359;51.402;6.778;2024-02-21T08:50:58;4.72;;;2.47;;
7783;SDS011;19359;51.402;6.778;2024-02-21T08:53:25;8.35;;;1.85;;
7783;SDS011;19359;51.402;6.778;2024-02-21T08:55:51;6.15;;;1.83;;
7783;SDS011;19359;51.402;6.778;2024-02-21T08:58:18;4.07;;;1.42;;
7783;SDS011;19359;51.402;6.778;2024-02-21T09:00:46;7.88;;;2.08;;
7783;SDS011;19359;51.402;6.778;2024-02-21T09:03:13;2.35;;;1.42;;
7783;SDS011;19359;51.402;6.778;2024-02-21T09:05:40;3.30;;;1.23;;
7783;SDS011;19359;51.402;6.778;2024-02-21T09:08:07;4.82;;;1.55;;
7783;SDS011;19359;51.402;6.778;2024-02-21T09:10:33;5.22;;;1.55;;
7783;SDS011;19359;51.402;6.778;2024-02-21T09:13:00;1.35;;;1.25;;
7783;SDS011;19359;51.402;6.778;2024-02-21T09:15:28;1.50;;;1.40;;
7783;SDS011;19359;51.402;6.778;2024-02-21T09:17:56;4.22;;;2.03;;
7783;SDS011;19359;51.402;6.778;2024-02-21T09:20:23;2.80;;;1.15;;
7783;SDS011;19359;51.402;6.778;2024-02-21T09:22:50;1.35;;;1.27;;
7783;SDS011;19359;51.402;6.778;2024-02-21T09:25:17;2.65;;;1.45;;
7783;SDS011;19359;51.402;6.778;2024-02-21T09:27:44;1.50;;;1.40;;
7783;SDS011;19359;51.402;6.778;2024-02-21T09:30:11;7.57;;;1.50;;
7783;SDS011;19359;51.402;6.778;2024-02-21T09:32:39;0.95;;;0.88;;
7783;SDS011;19359;51.402;6.778;2024-02-21T09:35:07;4.53;;;1.83;;
7783;SDS011;19359;51.402;6.778;2024-02-21T09:37:34;1.23;;;1.13;;
7783;SDS011;19359;51.402;6.778;2024-02-21T09:40:01;3.88;;;1.50;;
7783;SDS011;19359;51.402;6.778;2024-02-21T09:42:29;2.53;;;1.02;;
7783;SDS011;19359;51.402;6.778;2024-02-21T09:45:03;4.47;;;1.25;;
7783;SDS011;19359;51.402;6.778;2024-02-21T09:47:39;2.67;;;1.10;;
7783;SDS011;19359;51.402;6.778;2024-02-21T09:50:15;5.15;;;1.15;;
7783;SDS011;19359;51.402;6.778;2024-02-21T09:52:43;1.75;;;0.82;;
7783;SDS011;19359;51.402;6.778;2024-02-21T09:55:11;3.65;;;1.17;;
7783;SDS011;19359;51.402;6.778;2024-02-21T09:57:39;2.92;;;1.15;;
7783;SDS011;19359;51.402;6.778;2024-02-21T10:00:06;2.17;;;1.38;;
7783;SDS011;19359;51.402;6.778;2024-02-21T10:02:33;2.03;;;1.83;;
7783;SDS011;19359;51.402;6.778;2024-02-21T10:05:00;5.22;;;1.10;;
7783;SDS011;19359;51.402;6.778;2024-02-21T10:07:30;5.53;;;1.63;;
7783;SDS011;19359;51.402;6.778;2024-02-21T10:10:00;8.27;;;1.33;;
7783;SDS011;19359;51.402;6.778;2024-02-21T10:12:27;2.33;;;1.42;;
7783;SDS011;19359;51.402;6.778;2024-02-21T10:14:59;3.10;;;1.20;;
7783;SDS011;19359;51.402;6.778;2024-02-21T10:17:26;3.45;;;1.27;;
7783;SDS011;19359;51.402;6.778;2024-02-21T10:19:53;1.85;;;1.20;;
7783;SDS011;19359;51.402;6.778;2024-02-21T10:22:20;2.38;;;0.88;;
7783;SDS011;19359;51.402;6.778;2024-02-21T10:24:48;1.98;;;1.63;;
7783;SDS011;19359;51.402;6.778;2024-02-21T10:27:15;1.33;;;1.30;;
7783;SDS011;19359;51.402;6.778;2024-02-21T10:29:41;1.77;;;1.08;;
7783;SDS011;19359;51.402;6.778;2024-02-21T10:32:09;2.65;;;0.80;;
7783;SDS011;19359;51.402;6.778;2024-02-21T10:34:37;1.13;;;0.90;;
7783;SDS011;19359;51.402;6.778;2024-02-21T10:37:05;2.92;;;1.00;;
7783;SDS011;19359;51.402;6.778;2024-02-21T10:39:32;1.58;;;1.17;;
7783;SDS011;19359;51.402;6.778;2024-02-21T10:42:02;4.30;;;1.40;;
7783;SDS011;19359;51.402;6.778;2024-02-21T10:44:30;5.38;;;1.30;;
7783;SDS011;19359;51.402;6.778;2024-02-21T10:46:58;5.43;;;1.05;;
7783;SDS011;19359;51.402;6.778;2024-02-21T10:49:25;1.80;;;0.45;;
7783;SDS011;19359;51.402;6.778;2024-02-21T10:51:54;4.07;;;1.00;;
7783;SDS011;19359;51.402;6.778;2024-02-21T10:54:29;0.85;;;0.85;;
7783;SDS011;19359;51.402;6.778;2024-02-21T10:57:06;1.23;;;0.80;;
7783;SDS011;19359;51.402;6.778;2024-02-21T10:59:34;2.53;;;0.90;;
7783;SDS011;19359;51.402;6.778;2024-02-21T11:02:04;3.65;;;1.10;;
7783;SDS011;19359;51.402;6.778;2024-02-21T11:04:31;2.20;;;1.10;;
7783;SDS011;19359;51.402;6.778;2024-02-21T11:07:01;0.80;;;0.80;;
7783;SDS011;19359;51.402;6.778;2024-02-21T11:09:31;1.48;;;1.38;;
7783;SDS011;19359;51.402;6.778;2024-02-21T11:12:01;1.40;;;1.30;;
7783;SDS011;19359;51.402;6.778;2024-02-21T11:14:30;3.80;;;1.33;;
7783;SDS011;19359;51.402;6.778;2024-02-21T11:17:01;6.72;;;1.33;;
7783;SDS011;19359;51.402;6.778;2024-02-21T11:19:29;7.25;;;1.60;;
7783;SDS011;19359;51.402;6.778;2024-02-21T11:21:56;0.80;;;0.80;;
7783;SDS011;19359;51.402;6.778;2024-02-21T11:24:27;3.45;;;0.93;;
7783;SDS011;19359;51.402;6.778;2024-02-21T11:26:55;4.35;;;1.05;;
7783;SDS011;19359;51.402;6.778;2024-02-21T11:29:25;2.70;;;0.98;;
7783;SDS011;19359;51.402;6.778;2024-02-21T11:31:53;4.65;;;0.95;;
7783;SDS011;19359;51.402;6.778;2024-02-21T11:34:20;2.47;;;0.63;;
7783;SDS011;19359;51.402;6.778;2024-02-21T11:36:47;2.47;;;0.90;;
7783;SDS011;19359;51.402;6.778;2024-02-21T11:39:18;2.55;;;1.15;;
7783;SDS011;19359;51.402;6.778;2024-02-21T11:41:46;1.08;;;0.90;;
7783;SDS011;19359;51.402;6.778;2024-02-21T11:44:13;1.55;;;0.90;;
7783;SDS011;19359;51.402;6.778;2024-02-21T11:46:40;9.63;;;2.05;;
7783;SDS011;19359;51.402;6.778;2024-02-21T11:49:08;3.08;;;1.23;;
7783;SDS011;19359;51.402;6.778;2024-02-21T11:51:35;2.90;;;1.23;;
7783;SDS011;19359;51.402;6.778;2024-02-21T11:54:02;3.63;;;1.15;;
7783;SDS011;19359;51.402;6.778;2024-02-21T11:56:29;1.13;;;1.02;;
7783;SDS011;19359;51.402;6.778;2024-02-21T11:58:58;3.60;;;1.20;;
7783;SDS011;19359;51.402;6.778;2024-02-21T12:01:25;6.05;;;1.25;;
7783;SDS011;19359;51.402;6.778;2024-02-21T12:03:52;2.65;;;1.15;;
7783;SDS011;19359;51.402;6.778;2024-02-21T12:06:20;1.40;;;0.82;;
7783;SDS011;19359;51.402;6.778;2024-02-21T12:08:47;5.05;;;1.73;;
7783;SDS011;19359;51.402;6.778;2024-02-21T12:11:20;4.10;;;1.05;;
7783;SDS011;19359;51.402;6.778;2024-02-21T12:13:47;2.38;;;1.02;;
7783;SDS011;19359;51.402;6.778;2024-02-21T12:16:24;2.03;;;1.25;;
7783;SDS011;19359;51.402;6.778;2024-02-21T12:18:52;2.30;;;1.40;;
7783;SDS011;19359;51.402;6.778;2024-02-21T12:21:20;2.25;;;1.15;;
7783;SDS011;19359;51.402;6.778;2024-02-21T12:23:50;2.35;;;1.35;;
7783;SDS011;19359;51.402;6.778;2024-02-21T12:26:16;3.40;;;1.50;;
7783;SDS011;19359;51.402;6.778;2024-02-21T12:28:43;6.18;;;3.95;;
7783;SDS011;19359;51.402;6.778;2024-02-21T12:31:10;1.30;;;0.82;;
7783;SDS011;19359;51.402;6.778;2024-02-21T12:33:37;1.92;;;1.00;;
7783;SDS011;19359;51.402;6.778;2024-02-21T12:36:04;3.08;;;1.10;;
7783;SDS011;19359;51.402;6.778;2024-02-21T12:38:32;4.35;;;3.78;;
7783;SDS011;19359;51.402;6.778;2024-02-21T12:40:59;11.52;;;10.48;;
7783;SDS011;19359;51.402;6.778;2024-02-21T12:43:26;28.38;;;26.52;;
7783;SDS011;19359;51.402;6.778;2024-02-21T12:45:53;27.63;;;26.23;;
7783;SDS011;19359;51.402;6.778;2024-02-21T12:48:20;154.52;;;140.43;;
7783;SDS011;19359;51.402;6.778;2024-02-21T12:50:48;173.68;;;155.65;;
7783;SDS011;19359;51.402;6.778;2024-02-21T12:53:16;356.60;;;244.38;;
7783;SDS011;19359;51.402;6.778;2024-02-21T12:55:45;324.80;;;230.90;;
7783;SDS011;19359;51.402;6.778;2024-02-21T12:58:12;395.90;;;249.88;;
7783;SDS011;19359;51.402;6.778;2024-02-21T13:00:39;639.05;;;259.33;;
7783;SDS011;19359;51.402;6.778;2024-02-21T13:03:06;517.45;;;254.95;;
7783;SDS011;19359;51.402;6.778;2024-02-21T13:05:34;579.42;;;261.17;;
7783;SDS011;19359;51.402;6.778;2024-02-21T13:08:01;582.70;;;259.17;;
7783;SDS011;19359;51.402;6.778;2024-02-21T13:10:29;585.28;;;265.63;;
7783;SDS011;19359;51.402;6.778;2024-02-21T13:12:57;551.55;;;266.10;;
7783;SDS011;19359;51.402;6.778;2024-02-21T13:15:23;534.47;;;264.60;;
7783;SDS011;19359;51.402;6.778;2024-02-21T13:17:50;539.63;;;262.70;;
7783;SDS011;19359;51.402;6.778;2024-02-21T13:20:17;536.95;;;273.73;;
7783;SDS011;19359;51.402;6.778;2024-02-21T13:22:43;568.63;;;286.67;;
7783;SDS011;19359;51.402;6.778;2024-02-21T13:25:10;574.05;;;283.35;;
7783;SDS011;19359;51.402;6.778;2024-02-21T13:27:40;611.58;;;287.60;;
7783;SDS011;19359;51.402;6.778;2024-02-21T13:30:09;615.92;;;283.88;;
7783;SDS011;19359;51.402;6.778;2024-02-21T13:32:36;711.50;;;280.17;;
7783;SDS011;19359;51.402;6.778;2024-02-21T13:35:03;728.40;;;275.50;;
7783;SDS011;19359;51.402;6.778;2024-02-21T13:37:31;730.83;;;260.40;;
7783;SDS011;19359;51.402;6.778;2024-02-21T13:39:58;744.80;;;264.05;;
7783;SDS011;19359;51.402;6.778;2024-02-21T13:42:25;738.67;;;248.35;;
7783;SDS011;19359;51.402;6.778;2024-02-21T13:44:52;736.42;;;250.30;;
7783;SDS011;19359;51.402;6.778;2024-02-21T13:47:20;732.65;;;239.35;;
7783;SDS011;19359;51.402;6.778;2024-02-21T13:49:47;732.05;;;238.93;;
7783;SDS011;19359;51.402;6.778;2024-02-21T13:52:14;727.30;;;232.57;;
7783;SDS011;19359;51.402;6.778;2024-02-21T13:54:42;726.13;;;225.80;;
7783;SDS011;19359;51.402;6.778;2024-02-21T13:57:08;717.17;;;217.43;;
7783;SDS011;19359;51.402;6.778;2024-02-21T13:59:35;715.10;;;222.23;;
7783;SDS011;19359;51.402;6.778;2024-02-21T14:02:02;715.30;;;214.52;;
7783;SDS011;19359;51.402;6.778;2024-02-21T14:04:30;718.13;;;220.10;;
7783;SDS011;19359;51.402;6.778;2024-02-21T14:06:57;716.33;;;214.23;;
7783;SDS011;19359;51.402;6.778;2024-02-21T14:09:24;711.65;;;212.93;;
7783;SDS011;19359;51.402;6.778;2024-02-21T14:11:50;713.55;;;206.60;;
7783;SDS011;19359;51.402;6.778;2024-02-21T14:14:17;706.35;;;204.90;;
7783;SDS011;19359;51.402;6.778;2024-02-21T14:16:44;709.65;;;202.82;;
7783;SDS011;19359;51.402;6.778;2024-02-21T14:19:12;706.22;;;200.52;;
7783;SDS011;19359;51.402;6.778;2024-02-21T14:21:41;711.53;;;211.80;;
7783;SDS011;19359;51.402;6.778;2024-02-21T14:24:07;708.92;;;206.68;;
7783;SDS011;19359;51.402;6.778;2024-02-21T14:26:34;711.33;;;210.85;;
7783;SDS011;19359;51.402;6.778;2024-02-21T14:29:01;701.78;;;199.93;;
7783;SDS011;19359;51.402;6.778;2024-02-21T14:31:28;703.90;;;202.45;;
7783;SDS011;19359;51.402;6.778;2024-02-21T14:33:57;700.65;;;195.68;;